Time;durP1;ratioP1;P1;durP2;ratioP2;P2;SDS_P1;SDS_P2;PMS_P1;PMS_P2;Temp;Humidity;BMP_temperature;BMP_pressure;BME280_temperature;BME280_humidity;BME280_pressure;Samples;Min_cycle;Max_cycle;Signal;HPM_P1;HPM_P2
2021/07/31 00:01:40;;;;;;;12.90;1.92;;;;;;;17.51;55.79;100411.97;5082205;28;20128;-66
2021/07/31 00:04:07;;;;;;;13.77;2.15;;;;;;;17.52;55.69;100411.78;5092809;28;20044;-66
2021/07/31 00:06:34;;;;;;;9.75;2.00;;;;;;;17.55;55.58;100405.97;5095526;28;20040;-66
2021/07/31 00:09:00;;;;;;;9.90;2.45;;;;;;;17.45;56.17;100409.09;5095577;28;20089;-66
2021/07/31 00:11:27;;;;;;;10.40;2.55;;;;;;;17.48;55.72;100409.72;5095346;28;20067;-66
2021/07/31 00:13:54;;;;;;;9.27;2.08;;;;;;;17.36;56.64;100412.19;5071892;28;20094;-66
2021/07/31 00:16:21;;;;;;;11.07;2.15;;;;;;;17.44;56.09;100420.03;5074254;28;20044;-66
2021/07/31 00:18:48;;;;;;;11.77;2.45;;;;;;;17.42;56.28;100424.78;5074730;28;20060;-66
2021/07/31 00:21:15;;;;;;;8.20;2.13;;;;;;;17.44;56.22;100418.19;5074935;28;20052;-66
2021/07/31 00:23:42;;;;;;;12.52;2.28;;;;;;;17.34;56.71;100427.69;5057474;28;20079;-66
2021/07/31 00:26:09;;;;;;;12.43;2.20;;;;;;;17.31;56.83;100420.84;5073735;28;20448;-65
2021/07/31 00:28:36;;;;;;;10.23;2.35;;;;;;;17.36;56.93;100417.56;5072962;28;20032;-66
2021/07/31 00:31:03;;;;;;;13.25;2.30;;;;;;;17.35;56.91;100408.66;5074703;28;20090;-66
2021/07/31 00:33:29;;;;;;;8.43;2.08;;;;;;;17.38;56.97;100415.50;5073053;28;20052;-66
2021/07/31 00:35:57;;;;;;;9.27;2.40;;;;;;;17.42;57.48;100414.03;5074740;28;20044;-65
2021/07/31 00:38:24;;;;;;;10.32;2.20;;;;;;;17.35;57.55;100405.19;5073481;28;20110;-66
2021/07/31 00:40:51;;;;;;;10.82;2.08;;;;;;;17.34;57.42;100403.53;5074638;28;20464;-66
2021/07/31 00:43:17;;;;;;;15.77;2.70;;;;;;;17.20;58.21;100406.22;5074409;28;20534;-66
2021/07/31 00:45:44;;;;;;;11.55;2.20;;;;;;;17.27;57.99;100411.56;5073770;28;20052;-65
2021/07/31 00:48:11;;;;;;;10.25;2.30;;;;;;;17.30;58.04;100402.28;5074310;28;20040;-65
2021/07/31 00:50:38;;;;;;;8.85;2.30;;;;;;;17.26;58.38;100401.88;5056561;28;20045;-66
2021/07/31 00:53:05;;;;;;;11.27;2.30;;;;;;;17.27;58.41;100417.75;5074461;28;20440;-66
2021/07/31 00:55:33;;;;;;;6.47;2.10;;;;;;;17.22;58.43;100416.72;5089814;28;20466;-65
2021/07/31 00:58:00;;;;;;;15.57;2.55;;;;;;;17.17;58.72;100413.81;5074142;28;20055;-65
2021/07/31 01:00:35;;;;;;;15.27;2.33;;;;;;;17.24;58.73;100410.13;5074148;28;20094;-65
2021/07/31 01:03:01;;;;;;;11.25;2.30;;;;;;;17.26;58.50;100416.13;5092617;28;20531;-66
2021/07/31 01:05:28;;;;;;;19.00;2.60;;;;;;;17.27;58.97;100419.63;5095008;28;20524;-66
2021/07/31 01:07:56;;;;;;;11.07;2.40;;;;;;;17.33;58.59;100413.41;5068025;28;20049;-65
2021/07/31 01:10:23;;;;;;;8.57;2.53;;;;;;;17.31;58.48;100415.50;5054203;28;20040;-65
2021/07/31 01:12:53;;;;;;;14.90;2.47;;;;;;;17.17;59.05;100412.00;5060043;28;20044;-66
2021/07/31 01:15:21;;;;;;;7.03;2.10;;;;;;;17.27;58.85;100417.75;5073905;28;20501;-66
2021/07/31 01:17:47;;;;;;;9.07;2.53;;;;;;;17.19;59.15;100414.44;5072407;28;20075;-66
2021/07/31 01:20:14;;;;;;;7.30;2.10;;;;;;;17.10;59.59;100415.69;5074027;28;20041;-65
2021/07/31 01:22:46;;;;;;;15.52;2.50;;;;;;;17.16;59.18;100426.41;5073602;28;20049;-66
2021/07/31 01:25:13;;;;;;;12.90;2.70;;;;;;;17.00;59.87;100414.22;5072678;28;20041;-65
2021/07/31 01:27:42;;;;;;;10.40;2.20;;;;;;;16.98;60.35;100427.00;5072621;28;20068;-66
2021/07/31 01:30:09;;;;;;;10.13;2.60;;;;;;;16.98;60.34;100415.47;5073626;28;20052;-65
2021/07/31 01:32:38;;;;;;;12.93;2.83;;;;;;;16.95;60.23;100422.03;5073691;28;20086;-65
2021/07/31 01:35:05;;;;;;;14.18;2.40;;;;;;;16.94;60.33;100415.06;5072078;28;20067;-65
2021/07/31 01:37:34;;;;;;;10.60;2.60;;;;;;;17.02;60.22;100422.06;5072366;28;20519;-66
2021/07/31 01:40:03;;;;;;;7.93;2.45;;;;;;;16.95;60.77;100422.03;5071754;28;20469;-66
2021/07/31 01:42:29;;;;;;;15.32;2.80;;;;;;;16.93;60.59;100416.06;5073290;28;20053;-65
2021/07/31 01:44:56;;;;;;;10.48;2.53;;;;;;;17.00;60.50;100416.09;5072960;28;20055;-66
2021/07/31 01:47:24;;;;;;;12.93;2.60;;;;;;;16.98;60.68;100416.28;5071358;28;20127;-65
2021/07/31 01:49:52;;;;;;;14.07;2.80;;;;;;;17.12;60.60;100416.28;5069801;28;20489;-65
2021/07/31 01:52:19;;;;;;;9.52;2.28;;;;;;;17.14;59.95;100416.94;5066852;28;20502;-65
2021/07/31 01:54:46;;;;;;;13.60;2.78;;;;;;;17.08;60.48;100421.25;5060491;28;20048;-66
2021/07/31 01:57:14;;;;;;;13.30;2.83;;;;;;;17.11;60.18;100428.06;5073008;28;20119;-65
2021/07/31 02:00:00;;;;;;;11.25;2.50;;;;;;;17.07;60.45;100422.28;5071490;28;20465;-65
2021/07/31 02:02:50;;;;;;;10.65;2.47;;;;;;;17.12;60.50;100424.34;5110339;27;20368;-66
2021/07/31 02:05:17;;;;;;;14.18;2.60;;;;;;;17.07;60.37;100425.78;5110304;28;20070;-66
2021/07/31 02:07:51;;;;;;;15.95;2.72;;;;;;;17.11;60.47;100423.50;5109339;28;20402;-66
2021/07/31 02:10:18;;;;;;;10.43;2.75;;;;;;;17.07;60.92;100422.28;5075463;28;20089;-65
2021/07/31 02:12:45;;;;;;;10.50;2.75;;;;;;;17.11;60.23;100418.16;5109649;28;20502;-65
2021/07/31 02:15:17;;;;;;;10.80;2.55;;;;;;;17.05;60.66;100419.81;5091769;28;20130;-65
2021/07/31 02:17:49;;;;;;;;;;;;;;;17.05;60.64;100416.31;5110862;28;20044;-65
2021/07/31 02:20:15;;;;;;;12.68;2.53;;;;;;;17.14;60.21;100407.03;5108510;28;19952;-66
2021/07/31 02:22:52;;;;;;;12.55;2.55;;;;;;;17.04;60.57;100410.09;5108988;28;20412;-65
2021/07/31 02:25:39;;;;;;;9.50;2.90;;;;;;;17.06;60.73;100410.75;5109948;28;20484;-65
2021/07/31 02:28:26;;;;;;;12.73;2.67;;;;;;;17.01;60.69;100404.34;5110295;28;20119;-65
2021/07/31 02:30:52;;;;;;;11.27;2.67;;;;;;;17.15;60.22;100406.00;5109799;28;20070;-65
2021/07/31 02:33:19;;;;;;;8.43;2.78;;;;;;;17.15;59.88;100407.84;5108896;28;20047;-65
2021/07/31 02:35:48;;;;;;;10.10;2.72;;;;;;;17.15;59.72;100403.31;5108565;28;20382;-65
2021/07/31 02:38:31;;;;;;;8.77;2.60;;;;;;;17.08;60.10;100405.16;5109970;28;20114;-65
2021/07/31 02:40:58;;;;;;;11.10;2.85;;;;;;;17.08;59.97;100400.66;5108651;28;20097;-65
2021/07/31 02:43:26;;;;;;;11.43;2.83;;;;;;;17.00;60.33;100402.69;5108156;28;20048;-65
2021/07/31 02:45:53;;;;;;;11.35;2.50;;;;;;;17.00;59.98;100394.66;5103930;28;20495;-65
2021/07/31 02:48:21;;;;;;;12.88;2.90;;;;;;;17.04;60.08;100398.56;5108507;28;20447;-65
2021/07/31 02:50:49;;;;;;;10.48;2.28;;;;;;;17.02;60.07;100400.63;5108529;28;20147;-65
2021/07/31 02:53:27;;;;;;;7.15;2.42;;;;;;;17.08;59.82;100394.44;5108888;28;20048;-65
2021/07/31 02:55:55;;;;;;;9.48;2.60;;;;;;;17.07;59.75;100398.16;5107932;28;20344;-66
2021/07/31 02:58:22;;;;;;;11.27;2.65;;;;;;;17.13;59.64;100399.19;5109338;28;20100;-65
2021/07/31 03:00:49;;;;;;;13.52;2.58;;;;;;;16.94;59.99;100396.31;5108259;28;20052;-65
2021/07/31 03:03:16;;;;;;;15.48;3.00;;;;;;;16.81;60.40;100394.41;5109424;28;20039;-65
2021/07/31 03:05:53;;;;;;;11.18;2.50;;;;;;;16.76;60.53;100394.19;5109414;28;20195;-65
2021/07/31 03:08:20;;;;;;;13.27;2.88;;;;;;;16.78;60.72;100378.72;5109513;28;20047;-65
2021/07/31 03:10:53;;;;;;;10.48;2.80;;;;;;;16.97;60.29;100389.69;5109141;28;20492;-65
2021/07/31 03:13:20;;;;;;;11.70;2.70;;;;;;;16.86;60.44;100381.25;5098669;28;20055;-65
2021/07/31 03:15:51;;;;;;;12.70;2.88;;;;;;;16.86;60.54;100375.06;5095479;28;20523;-65
2021/07/31 03:18:20;;;;;;;13.55;2.95;;;;;;;16.82;61.10;100382.63;5095499;28;20040;-65
2021/07/31 03:20:48;;;;;;;9.80;2.90;;;;;;;16.95;60.29;100368.47;5095244;28;20048;-65
2021/07/31 03:23:19;;;;;;;11.07;2.72;;;;;;;16.85;61.22;100370.75;5095704;28;20048;-65
2021/07/31 03:25:46;;;;;;;12.60;2.65;;;;;;;16.79;60.62;100363.47;5095027;28;20048;-66
2021/07/31 03:28:14;;;;;;;13.05;2.90;;;;;;;16.69;61.05;100370.06;5095153;28;20083;-65
2021/07/31 03:30:53;;;;;;;9.18;2.42;;;;;;;16.63;61.22;100376.22;5093906;28;20040;-65
2021/07/31 03:33:20;;;;;;;14.25;3.17;;;;;;;16.68;61.24;100375.59;5095550;28;20044;-65
2021/07/31 03:35:50;;;;;;;13.70;3.15;;;;;;;16.71;61.12;100372.53;5094630;28;20550;-66
2021/07/31 03:38:36;;;;;;;11.65;2.58;;;;;;;16.67;61.32;100372.09;5131204;27;20822;-66
2021/07/31 03:41:03;;;;;;;10.73;2.40;;;;;;;16.72;61.68;100371.50;5129398;28;20040;-64
2021/07/31 03:43:38;;;;;;;8.77;2.50;;;;;;;16.74;61.35;100379.34;5131017;27;20051;-64
2021/07/31 03:46:07;;;;;;;13.80;2.80;;;;;;;16.80;61.33;100373.97;5125846;27;20035;-66
2021/07/31 03:48:34;;;;;;;10.98;2.83;;;;;;;16.73;61.37;100391.06;5129746;27;20058;-66
2021/07/31 03:51:03;;;;;;;9.13;2.90;;;;;;;16.76;60.96;100386.13;5130593;27;20044;-66
2021/07/31 03:53:34;;;;;;;9.13;2.78;;;;;;;16.73;61.51;100385.72;5130731;27;20047;-66
2021/07/31 03:56:02;;;;;;;13.38;3.17;;;;;;;16.62;61.88;100384.47;5129135;28;20039;-65
2021/07/31 03:58:34;;;;;;;14.75;3.55;;;;;;;16.62;61.89;100398.66;5131043;27;20060;-65
2021/07/31 04:01:01;;;;;;;11.43;3.30;;;;;;;16.55;62.32;100391.66;5126486;27;20039;-65
2021/07/31 04:03:28;;;;;;;13.90;3.45;;;;;;;16.61;62.32;100389.00;5110207;28;20105;-65
2021/07/31 04:05:58;;;;;;;14.15;2.95;;;;;;;16.60;62.80;100394.56;5110277;28;20047;-65
2021/07/31 04:08:45;;;;;;;13.98;2.78;;;;;;;16.67;62.34;100398.06;5117870;28;20039;-65
2021/07/31 04:11:23;;;;;;;9.05;2.92;;;;;;;16.65;62.33;100392.91;5090475;27;20389;-64
2021/07/31 04:14:10;;;;;;;13.93;3.70;;;;;;;16.58;62.72;100407.31;5088184;28;20078;-64
2021/07/31 04:16:43;;;;;;;11.45;2.88;;;;;;;16.57;62.76;100403.81;5072864;28;20047;-65
2021/07/31 04:19:12;;;;;;;9.60;2.97;;;;;;;16.39;63.58;100399.03;5089384;28;20047;-64
2021/07/31 04:21:42;;;;;;;11.60;3.53;;;;;;;16.49;63.28;100402.13;5088152;28;20064;-65
2021/07/31 04:24:12;;;;;;;10.00;3.22;;;;;;;16.43;63.45;100410.97;5088030;28;20048;-65
2021/07/31 04:26:39;;;;;;;9.68;3.28;;;;;;;16.38;63.75;100410.75;5088642;28;20044;-65
2021/07/31 04:29:06;;;;;;;12.18;3.08;;;;;;;16.45;63.99;100408.09;5088024;28;20044;-65
2021/07/31 04:31:33;;;;;;;8.50;3.03;;;;;;;16.52;63.54;100411.63;5088539;28;20040;-65
2021/07/31 04:34:00;;;;;;;10.77;2.72;;;;;;;16.44;64.00;100423.31;5089819;28;20106;-65
2021/07/31 04:36:26;;;;;;;9.15;3.20;;;;;;;16.39;64.51;100423.13;5086482;28;20040;-65
2021/07/31 04:38:53;;;;;;;13.85;3.20;;;;;;;16.40;64.61;100415.91;5088493;28;20040;-65
2021/07/31 04:41:20;;;;;;;12.77;2.90;;;;;;;16.45;64.46;100424.16;5087869;28;20041;-65
2021/07/31 04:43:47;;;;;;;11.30;3.03;;;;;;;16.44;64.70;100425.19;5088486;28;20041;-65
2021/07/31 04:46:13;;;;;;;17.67;3.30;;;;;;;16.56;64.32;100425.44;5083964;28;20040;-65
2021/07/31 04:48:40;;;;;;;9.73;2.90;;;;;;;16.43;64.63;100412.84;5089451;28;20497;-65
2021/07/31 04:51:09;;;;;;;11.60;3.00;;;;;;;16.59;64.30;100431.22;5088701;28;20090;-65
2021/07/31 04:53:36;;;;;;;13.43;3.28;;;;;;;16.46;64.62;100428.47;5089586;28;20040;-65
2021/07/31 04:56:03;;;;;;;9.07;2.85;;;;;;;16.43;65.09;100428.91;5089218;28;20127;-65
2021/07/31 04:58:30;;;;;;;11.63;2.90;;;;;;;16.46;64.72;100439.19;5089250;28;20067;-65
2021/07/31 05:01:00;;;;;;;9.95;2.88;;;;;;;16.45;64.96;100434.88;5071392;28;20040;-65
2021/07/31 05:03:28;;;;;;;15.95;3.13;;;;;;;16.38;65.39;100436.69;5089264;28;20075;-65
2021/07/31 05:05:55;;;;;;;12.80;3.20;;;;;;;16.34;65.35;100436.28;5089030;28;20048;-65
2021/07/31 05:08:22;;;;;;;11.77;3.22;;;;;;;16.39;65.01;100430.31;5087888;28;20048;-65
2021/07/31 05:10:50;;;;;;;12.68;3.15;;;;;;;16.49;65.03;100436.94;5087432;28;20049;-65
2021/07/31 05:13:18;;;;;;;16.85;3.53;;;;;;;16.29;65.52;100434.19;5088753;28;20045;-65
2021/07/31 05:15:46;;;;;;;15.68;3.17;;;;;;;16.37;65.11;100435.03;5087852;28;20468;-65
2021/07/31 05:18:13;;;;;;;13.88;3.28;;;;;;;16.44;64.73;100439.38;5085106;28;20048;-65
2021/07/31 05:20:42;;;;;;;10.77;3.10;;;;;;;16.45;65.32;100438.38;5087182;28;20055;-65
2021/07/31 05:23:09;;;;;;;14.60;3.55;;;;;;;16.41;64.86;100447.84;5057411;28;20382;-65
2021/07/31 05:25:36;;;;;;;15.20;3.40;;;;;;;16.49;64.74;100436.13;5074064;28;20064;-65
2021/07/31 05:28:03;;;;;;;13.35;3.15;;;;;;;16.53;64.50;100447.25;5074030;28;20036;-65
2021/07/31 05:30:30;;;;;;;11.07;3.40;;;;;;;16.39;64.70;100439.19;5075310;28;20086;-65
2021/07/31 05:32:57;;;;;;;15.95;3.50;;;;;;;16.39;64.90;100444.53;5073527;28;20044;-65
2021/07/31 05:35:24;;;;;;;9.98;3.58;;;;;;;16.56;64.56;100445.00;5074900;28;20444;-65
2021/07/31 05:37:51;;;;;;;11.82;3.10;;;;;;;16.50;64.74;100449.31;5074812;28;20382;-65
2021/07/31 05:40:18;;;;;;;11.55;3.20;;;;;;;16.58;64.74;100450.97;5073550;28;20043;-65
2021/07/31 05:42:44;;;;;;;13.07;3.25;;;;;;;16.62;64.54;100457.56;5073383;28;20401;-65
2021/07/31 05:45:11;;;;;;;12.60;3.42;;;;;;;16.58;64.65;100459.00;5072798;28;20485;-65
2021/07/31 05:47:38;;;;;;;9.70;2.83;;;;;;;16.61;64.10;100458.63;5072041;28;20082;-65
2021/07/31 05:50:07;;;;;;;15.70;3.80;;;;;;;16.76;63.84;100458.47;5056581;28;20036;-65
2021/07/31 05:52:36;;;;;;;10.98;3.17;;;;;;;16.58;64.49;100450.16;5074711;28;20131;-65
2021/07/31 05:55:05;;;;;;;11.52;3.10;;;;;;;16.61;64.85;100460.47;5073453;28;20044;-65
2021/07/31 05:57:32;;;;;;;11.82;3.30;;;;;;;16.72;64.07;100461.72;5074357;28;20207;-65
2021/07/31 05:59:59;;;;;;;13.63;3.67;;;;;;;16.76;63.83;100466.50;5040184;28;20397;-65
2021/07/31 06:02:26;;;;;;;24.80;3.58;;;;;;;16.89;63.82;100458.50;5072137;28;20048;-66
2021/07/31 06:04:53;;;;;;;14.02;3.20;;;;;;;16.74;64.03;100455.16;5073188;28;20037;-65
2021/07/31 06:07:20;;;;;;;10.20;2.95;;;;;;;16.73;63.78;100461.53;5071532;28;20045;-65
2021/07/31 06:09:50;;;;;;;13.20;3.45;;;;;;;16.78;63.62;100466.31;5073871;28;20131;-65
2021/07/31 06:12:19;;;;;;;12.73;3.00;;;;;;;16.79;63.96;100471.47;5073788;28;20447;-65
2021/07/31 06:14:46;;;;;;;14.10;3.05;;;;;;;16.92;63.83;100462.66;5073006;28;20059;-65
2021/07/31 06:17:13;;;;;;;16.02;3.63;;;;;;;16.98;63.37;100461.84;5073698;28;20513;-65
2021/07/31 06:19:41;;;;;;;16.35;3.20;;;;;;;16.88;63.44;100472.09;5073786;28;20056;-65
2021/07/31 06:22:09;;;;;;;19.20;3.50;;;;;;;16.90;63.86;100478.13;5073515;28;20492;-65
2021/07/31 06:24:36;;;;;;;9.52;2.95;;;;;;;16.89;63.97;100481.81;5073962;28;20045;-65
2021/07/31 06:27:04;;;;;;;16.60;3.25;;;;;;;16.85;64.28;100476.03;5073587;28;20074;-65
2021/07/31 06:29:32;;;;;;;16.98;3.08;;;;;;;16.86;64.08;100471.50;5074021;28;20448;-65
2021/07/31 06:31:58;;;;;;;12.27;3.15;;;;;;;16.86;63.67;100468.81;5073451;28;20040;-65
2021/07/31 06:34:26;;;;;;;12.02;3.58;;;;;;;16.80;64.00;100466.91;5053389;28;20119;-65
2021/07/31 06:36:53;;;;;;;15.35;3.47;;;;;;;16.78;63.77;100468.97;5055869;28;20123;-65
2021/07/31 06:39:20;;;;;;;14.75;3.90;;;;;;;16.76;64.42;100477.22;5072489;28;20559;-65
2021/07/31 06:41:47;;;;;;;14.90;3.13;;;;;;;16.77;64.12;100462.81;5071955;28;20046;-65
2021/07/31 06:44:14;;;;;;;17.90;3.33;;;;;;;16.79;64.33;100478.66;5072135;28;20502;-65
2021/07/31 06:46:40;;;;;;;21.08;3.25;;;;;;;16.97;63.74;100481.63;5068877;28;20109;-65
2021/07/31 06:49:07;;;;;;;12.52;3.47;;;;;;;16.86;64.08;100480.38;5073212;28;20040;-65
2021/07/31 06:51:36;;;;;;;20.75;3.70;;;;;;;16.91;64.17;100481.63;5071736;28;20043;-68
2021/07/31 06:54:03;;;;;;;14.05;3.42;;;;;;;16.96;64.08;100485.34;5053268;28;20098;-65
2021/07/31 06:56:34;;;;;;;12.10;3.03;;;;;;;16.99;63.83;100486.78;5053814;28;20041;-65
2021/07/31 06:59:02;;;;;;;15.98;3.47;;;;;;;16.98;63.46;100493.19;5056088;28;20585;-65
2021/07/31 07:01:28;;;;;;;15.95;3.17;;;;;;;17.15;63.47;100493.63;5073002;28;20044;-65
2021/07/31 07:03:55;;;;;;;13.93;3.53;;;;;;;17.07;63.93;100489.28;5072609;28;20048;-65
2021/07/31 07:06:22;;;;;;;16.15;3.35;;;;;;;17.21;63.67;100498.19;5073173;28;20501;-65
2021/07/31 07:08:49;;;;;;;17.80;3.40;;;;;;;17.21;63.89;100520.44;5070070;28;20055;-65
2021/07/31 07:11:16;;;;;;;11.93;3.20;;;;;;;17.27;63.08;100510.75;5071795;28;20074;-65
2021/07/31 07:13:44;;;;;;;15.35;3.25;;;;;;;17.27;62.88;100514.25;5073096;28;20067;-65
2021/07/31 07:16:11;;;;;;;12.70;3.30;;;;;;;17.25;63.09;100507.47;5072401;28;20041;-65
2021/07/31 07:18:37;;;;;;;14.00;3.67;;;;;;;17.22;63.31;100500.63;5072534;28;20051;-65
2021/07/31 07:21:08;;;;;;;17.70;3.33;;;;;;;17.30;62.77;100513.03;5061158;28;20588;-65
2021/07/31 07:23:35;;;;;;;10.80;3.40;;;;;;;17.23;63.16;100513.03;5052845;28;20060;-66
2021/07/31 07:26:02;;;;;;;15.15;3.75;;;;;;;17.18;62.85;100507.44;5052575;28;20051;-65
2021/07/31 07:28:29;;;;;;;16.05;3.40;;;;;;;17.30;63.22;100509.50;5097935;28;20500;-65
2021/07/31 07:30:56;;;;;;;16.05;3.28;;;;;;;17.33;63.02;100514.47;5071280;28;20493;-65
2021/07/31 07:33:23;;;;;;;14.48;3.28;;;;;;;17.39;62.17;100519.84;5071097;28;20123;-65
2021/07/31 07:35:51;;;;;;;12.75;3.22;;;;;;;17.28;62.49;100523.13;5070486;28;20052;-65
2021/07/31 07:38:18;;;;;;;16.02;3.40;;;;;;;17.26;62.52;100526.03;5071159;28;20066;-65
2021/07/31 07:40:46;;;;;;;15.50;3.45;;;;;;;17.40;62.61;100507.28;5071932;28;20124;-65
2021/07/31 07:43:13;;;;;;;12.75;3.30;;;;;;;17.38;62.63;100518.19;5071971;28;20074;-65
2021/07/31 07:45:40;;;;;;;11.40;3.50;;;;;;;17.33;62.38;100520.66;5068124;28;20044;-65
2021/07/31 07:48:07;;;;;;;17.17;3.60;;;;;;;17.31;62.75;100525.41;5070933;28;20509;-65
2021/07/31 07:50:34;;;;;;;18.92;3.10;;;;;;;17.46;61.96;100522.53;5064731;28;20509;-65
2021/07/31 07:53:01;;;;;;;14.35;3.28;;;;;;;17.46;62.11;100518.00;5063717;28;20036;-65
2021/07/31 07:55:28;;;;;;;10.75;3.40;;;;;;;17.40;62.54;100504.59;5053540;28;20040;-65
2021/07/31 07:57:55;;;;;;;15.07;3.25;;;;;;;17.54;61.37;100519.66;5071308;28;20116;-65
2021/07/31 08:00:22;;;;;;;18.90;3.60;;;;;;;17.46;61.98;100520.69;5072082;28;20047;-66
2021/07/31 08:02:48;;;;;;;12.68;3.20;;;;;;;17.59;62.02;100510.97;5071696;28;20032;-66
2021/07/31 08:05:15;;;;;;;20.30;3.65;;;;;;;17.69;61.63;100503.38;5071859;28;20036;-65
2021/07/31 08:07:44;;;;;;;12.48;3.22;;;;;;;17.96;61.19;100506.06;5052746;28;20064;-65
2021/07/31 08:10:12;;;;;;;16.30;3.58;;;;;;;18.07;60.61;100516.16;5071878;28;20048;-65
2021/07/31 08:12:39;;;;;;;15.98;3.88;;;;;;;18.19;60.07;100513.66;5071825;28;20037;-66
2021/07/31 08:15:07;;;;;;;11.48;3.15;;;;;;;18.08;59.76;100511.59;5072098;28;20040;-65
2021/07/31 08:17:34;;;;;;;13.88;3.53;;;;;;;17.90;60.83;100518.47;5071702;28;20500;-65
2021/07/31 08:20:02;;;;;;;12.20;3.35;;;;;;;17.90;60.54;100533.72;5053775;28;20048;-65
2021/07/31 08:22:28;;;;;;;14.27;3.75;;;;;;;17.86;60.28;100527.13;5072019;28;20037;-65
2021/07/31 08:24:55;;;;;;;11.38;3.22;;;;;;;17.76;60.38;100506.88;5072198;28;20045;-64
2021/07/31 08:27:22;;;;;;;12.00;3.65;;;;;;;17.88;60.22;100520.50;5072186;28;20075;-65
2021/07/31 08:29:50;;;;;;;13.13;3.55;;;;;;;17.86;59.89;100535.97;5071574;28;20044;-65
2021/07/31 08:32:16;;;;;;;13.85;3.78;;;;;;;17.99;60.34;100525.25;5070894;28;20049;-65
2021/07/31 08:34:43;;;;;;;10.15;3.30;;;;;;;17.92;59.70;100515.53;5072031;28;20473;-65
2021/07/31 08:37:11;;;;;;;12.93;3.42;;;;;;;18.08;59.60;100508.94;5069018;28;20055;-65
2021/07/31 08:39:38;;;;;;;15.77;3.63;;;;;;;18.12;59.45;100526.25;5054629;28;20041;-65
2021/07/31 08:42:05;;;;;;;21.73;3.95;;;;;;;17.97;59.54;100531.84;5071943;28;20493;-65
2021/07/31 08:44:34;;;;;;;12.55;3.10;;;;;;;17.88;60.67;100528.56;5071780;28;20051;-65
2021/07/31 08:47:04;;;;;;;14.02;3.40;;;;;;;18.03;60.47;100526.50;5066513;28;20111;-65
2021/07/31 08:49:33;;;;;;;12.50;3.55;;;;;;;18.00;59.99;100534.94;5071731;28;20037;-65
2021/07/31 08:52:02;;;;;;;15.82;3.50;;;;;;;18.08;59.73;100530.41;5068131;28;20501;-65
2021/07/31 08:54:29;;;;;;;18.08;3.85;;;;;;;18.09;59.54;100532.06;5071833;28;20071;-66
2021/07/31 08:56:56;;;;;;;13.52;3.50;;;;;;;18.13;59.31;100534.09;5072794;28;20151;-65
2021/07/31 08:59:25;;;;;;;12.55;3.40;;;;;;;18.25;59.71;100534.31;5075629;28;20303;-65
2021/07/31 09:01:52;;;;;;;9.48;3.08;;;;;;;18.16;60.35;100533.69;5074013;28;20041;-65
2021/07/31 09:04:20;;;;;;;21.02;3.55;;;;;;;18.43;59.78;100533.66;5074353;28;20044;-65
2021/07/31 09:06:46;;;;;;;18.98;3.78;;;;;;;18.73;59.19;100544.69;5072186;28;20063;-65
2021/07/31 09:09:14;;;;;;;12.75;3.20;;;;;;;18.93;58.39;100533.06;5074141;28;20044;-66
2021/07/31 09:12:04;;;;;;;12.23;3.55;;;;;;;19.03;57.32;100528.06;5057787;28;20098;-65
2021/07/31 09:14:31;;;;;;;16.73;3.25;;;;;;;18.74;58.28;100534.78;5074132;28;20044;-65
2021/07/31 09:16:59;;;;;;;12.95;3.75;;;;;;;18.67;58.71;100542.88;5058006;28;20097;-65
2021/07/31 09:19:28;;;;;;;11.98;3.17;;;;;;;18.51;59.70;100546.84;5075406;28;20064;-65
2021/07/31 09:22:04;;;;;;;10.80;3.30;;;;;;;18.52;59.41;100534.22;5074764;28;20151;-65
2021/07/31 09:24:32;;;;;;;13.70;3.08;;;;;;;18.64;59.23;100537.91;5073359;28;20090;-65
2021/07/31 09:26:58;;;;;;;11.68;3.17;;;;;;;18.73;60.18;100533.94;5057616;28;20040;-65
2021/07/31 09:29:31;;;;;;;9.27;3.17;;;;;;;18.86;59.15;100541.16;5070240;28;20036;-66
2021/07/31 09:32:04;;;;;;;12.73;2.60;;;;;;;18.87;57.96;100533.94;5054128;28;20041;-65
2021/07/31 09:34:34;;;;;;;8.18;3.20;;;;;;;18.80;58.26;100555.41;5053006;28;20051;-66
2021/07/31 09:37:23;;;;;;;12.68;3.28;;;;;;;18.91;56.96;100546.72;5053819;28;20047;-65
2021/07/31 09:40:04;;;;;;;11.98;3.05;;;;;;;18.99;57.79;100551.88;5055081;28;20406;-66
2021/07/31 09:42:37;;;;;;;9.00;2.83;;;;;;;19.01;57.17;100550.81;5055082;28;20033;-66
2021/07/31 09:45:08;;;;;;;12.73;2.90;;;;;;;19.09;55.63;100551.38;5054946;28;20121;-66
2021/07/31 09:47:36;;;;;;;9.02;2.72;;;;;;;19.28;54.77;100557.72;5074355;28;20489;-65
2021/07/31 09:50:04;;;;;;;10.50;2.72;;;;;;;19.28;55.40;100556.88;5054339;28;20041;-65
2021/07/31 09:52:32;;;;;;;7.47;2.70;;;;;;;19.18;55.90;100555.47;5061653;28;20037;-65
2021/07/31 09:54:59;;;;;;;10.30;3.05;;;;;;;19.07;56.95;100558.84;5074762;28;20512;-66
2021/07/31 09:57:28;;;;;;;10.48;3.00;;;;;;;18.94;57.01;100557.03;5072936;28;20044;-67
2021/07/31 09:59:59;;;;;;;10.13;2.80;;;;;;;18.90;57.64;100554.97;5074204;28;20397;-66
2021/07/31 10:02:28;;;;;;;8.80;2.88;;;;;;;18.76;57.50;100555.03;5073528;28;20044;-66
2021/07/31 10:04:55;;;;;;;8.00;2.97;;;;;;;18.92;57.87;100564.50;5073249;28;20444;-66
2021/07/31 10:07:21;;;;;;;10.85;2.83;;;;;;;19.00;56.57;100558.06;5072354;28;20045;-66
2021/07/31 10:09:49;;;;;;;10.25;2.97;;;;;;;19.52;56.39;100558.78;5072605;28;20060;-66
2021/07/31 10:12:22;;;;;;;8.55;2.70;;;;;;;19.99;56.92;100554.94;5073137;28;20041;-66
2021/07/31 10:14:50;;;;;;;13.05;2.80;;;;;;;20.21;53.25;100564.25;5073899;28;20497;-66
2021/07/31 10:17:17;;;;;;;8.38;2.78;;;;;;;20.13;53.10;100545.69;5074288;28;20124;-66
2021/07/31 10:19:46;;;;;;;8.63;2.80;;;;;;;19.77;53.70;100563.38;5073941;28;20060;-66
2021/07/31 10:22:14;;;;;;;11.57;2.75;;;;;;;19.60;54.64;100567.63;5073706;28;20446;-66
2021/07/31 10:25:04;;;;;;;8.95;2.83;;;;;;;19.42;55.26;100557.63;5073888;28;20037;-66
2021/07/31 10:27:32;;;;;;;11.00;2.90;;;;;;;19.46;55.01;100566.91;5074161;28;20044;-66
2021/07/31 10:30:00;;;;;;;8.35;3.10;;;;;;;19.77;53.80;100568.75;5074027;28;20489;-66
2021/07/31 10:35:08;;;;;;;10.38;2.70;;;;;;;19.74;53.46;100567.34;5108407;27;20135;-66
2021/07/31 10:40:33;;;;;;;8.38;2.80;;;;;;;19.66;54.54;100575.66;5131022;27;20357;-65
2021/07/31 10:43:04;;;;;;;9.68;2.78;;;;;;;19.70;54.25;100570.66;5115735;28;20126;-66
2021/07/31 10:45:33;;;;;;;10.98;3.00;;;;;;;19.55;54.29;100577.19;5130154;27;20131;-65
2021/07/31 10:48:04;;;;;;;9.38;3.20;;;;;;;19.90;53.51;100583.97;5129578;28;20403;-67
2021/07/31 10:53:10;;;;;;;9.77;2.92;;;;;;;20.49;52.28;100571.84;5110444;27;20415;-66
2021/07/31 10:58:17;;;;;;;9.77;2.90;;;;;;;20.77;50.75;100577.78;5109100;27;20405;-64
2021/07/31 11:06:01;;;;;;;10.93;2.80;;;;;;;20.67;49.57;100576.44;5130873;27;20382;-64
2021/07/31 11:08:32;;;;;;;10.13;3.00;;;;;;;20.69;50.30;100571.66;5127740;28;20051;-66
2021/07/31 11:11:01;;;;;;;7.80;2.70;;;;;;;20.99;49.24;100573.59;5130902;28;20047;-64
2021/07/31 11:18:43;;;;;;;11.23;2.60;;;;;;;21.45;49.65;100566.75;5109978;27;20511;-64
2021/07/31 11:21:31;;;;;;;9.07;2.50;;;;;;;21.59;49.74;100575.47;5110135;28;20039;-65
2021/07/31 11:24:05;;;;;;;7.78;2.60;;;;;;;21.64;48.39;100574.78;5110500;28;20071;-65
2021/07/31 11:29:18;;;;;;;7.65;2.53;;;;;;;21.63;48.29;100568.56;5125004;27;20367;-64
2021/07/31 11:32:14;;;;;;;9.40;2.85;;;;;;;21.66;48.84;100559.97;5122429;28;20446;-66
2021/07/31 11:34:44;;;;;;;8.23;2.72;;;;;;;21.45;50.11;100560.53;5142903;27;20035;-66
2021/07/31 11:37:13;;;;;;;10.23;2.92;;;;;;;21.29;48.67;100567.38;5111378;28;20092;-65
2021/07/31 11:39:40;;;;;;;14.90;2.80;;;;;;;21.11;49.55;100578.19;5131972;27;20142;-65
2021/07/31 11:42:09;;;;;;;9.60;3.17;;;;;;;21.25;48.67;100571.59;5129312;28;20039;-65
2021/07/31 11:44:38;;;;;;;7.43;2.75;;;;;;;21.43;46.81;100563.44;5110644;28;20040;-65
2021/07/31 11:47:06;;;;;;;10.75;2.67;;;;;;;21.69;46.96;100558.72;5123570;27;20518;-65
2021/07/31 11:49:36;;;;;;;9.35;2.45;;;;;;;21.98;46.18;100558.84;5135340;27;20051;-65
2021/07/31 11:52:05;;;;;;;7.57;2.70;;;;;;;22.32;46.57;100559.94;5129942;27;20047;-67